sensor_id;sensor_type;location;lat;lon;timestamp;P1;durP1;ratioP1;P2;durP2;ratioP2
3819;SDS011;1925;51.356;9.530;2022-07-29T00:00:52;11.27;;;1.57;;
3819;SDS011;1925;51.356;9.530;2022-07-29T00:03:18;3.00;;;1.63;;
3819;SDS011;1925;51.356;9.530;2022-07-29T00:05:44;2.43;;;1.20;;
3819;SDS011;1925;51.356;9.530;2022-07-29T00:08:10;5.40;;;1.53;;
3819;SDS011;1925;51.356;9.530;2022-07-29T00:10:37;3.77;;;1.10;;
3819;SDS011;1925;51.356;9.530;2022-07-29T00:13:03;6.67;;;1.23;;
3819;SDS011;1925;51.356;9.530;2022-07-29T00:15:29;1.90;;;1.03;;
3819;SDS011;1925;51.356;9.530;2022-07-29T00:17:55;9.80;;;1.97;;
3819;SDS011;1925;51.356;9.530;2022-07-29T00:20:21;2.03;;;1.33;;
3819;SDS011;1925;51.356;9.530;2022-07-29T00:22:47;6.87;;;1.53;;
3819;SDS011;1925;51.356;9.530;2022-07-29T00:25:13;4.20;;;1.73;;
3819;SDS011;1925;51.356;9.530;2022-07-29T00:27:39;4.00;;;1.43;;
3819;SDS011;1925;51.356;9.530;2022-07-29T00:30:05;3.53;;;1.00;;
3819;SDS011;1925;51.356;9.530;2022-07-29T00:32:31;3.43;;;1.97;;
3819;SDS011;1925;51.356;9.530;2022-07-29T00:34:57;7.10;;;1.50;;
3819;SDS011;1925;51.356;9.530;2022-07-29T00:37:42;2.97;;;1.50;;
3819;SDS011;1925;51.356;9.530;2022-07-29T00:40:08;6.13;;;1.57;;
3819;SDS011;1925;51.356;9.530;2022-07-29T00:45:09;4.10;;;1.70;;
3819;SDS011;1925;51.356;9.530;2022-07-29T00:47:35;6.03;;;1.47;;
3819;SDS011;1925;51.356;9.530;2022-07-29T00:50:01;1.90;;;1.47;;
3819;SDS011;1925;51.356;9.530;2022-07-29T00:52:28;3.30;;;1.93;;
3819;SDS011;1925;51.356;9.530;2022-07-29T00:54:54;3.20;;;1.57;;
3819;SDS011;1925;51.356;9.530;2022-07-29T00:57:21;6.77;;;1.93;;
3819;SDS011;1925;51.356;9.530;2022-07-29T00:59:47;1.53;;;1.43;;
3819;SDS011;1925;51.356;9.530;2022-07-29T01:02:13;2.63;;;1.33;;
3819;SDS011;1925;51.356;9.530;2022-07-29T01:04:39;3.40;;;1.20;;
3819;SDS011;1925;51.356;9.530;2022-07-29T01:07:05;1.80;;;1.07;;
3819;SDS011;1925;51.356;9.530;2022-07-29T01:09:32;2.60;;;1.20;;
3819;SDS011;1925;51.356;9.530;2022-07-29T01:11:58;2.87;;;1.10;;
3819;SDS011;1925;51.356;9.530;2022-07-29T01:14:24;7.33;;;1.70;;
3819;SDS011;1925;51.356;9.530;2022-07-29T01:17:02;4.10;;;1.50;;
3819;SDS011;1925;51.356;9.530;2022-07-29T01:22:00;4.10;;;1.30;;
3819;SDS011;1925;51.356;9.530;2022-07-29T01:27:10;6.43;;;1.63;;
3819;SDS011;1925;51.356;9.530;2022-07-29T01:29:43;1.50;;;1.20;;
3819;SDS011;1925;51.356;9.530;2022-07-29T01:32:11;3.40;;;1.33;;
3819;SDS011;1925;51.356;9.530;2022-07-29T01:34:41;2.73;;;1.00;;
3819;SDS011;1925;51.356;9.530;2022-07-29T01:39:40;3.20;;;1.20;;
3819;SDS011;1925;51.356;9.530;2022-07-29T01:42:10;2.30;;;1.00;;
3819;SDS011;1925;51.356;9.530;2022-07-29T01:44:53;7.33;;;1.87;;
3819;SDS011;1925;51.356;9.530;2022-07-29T01:47:23;4.67;;;1.60;;
3819;SDS011;1925;51.356;9.530;2022-07-29T01:49:51;3.17;;;1.40;;
3819;SDS011;1925;51.356;9.530;2022-07-29T01:52:20;2.70;;;1.97;;
3819;SDS011;1925;51.356;9.530;2022-07-29T01:54:57;2.33;;;1.27;;
3819;SDS011;1925;51.356;9.530;2022-07-29T01:57:28;2.90;;;1.20;;
3819;SDS011;1925;51.356;9.530;2022-07-29T01:59:55;2.50;;;1.47;;
3819;SDS011;1925;51.356;9.530;2022-07-29T02:02:21;2.90;;;1.53;;
3819;SDS011;1925;51.356;9.530;2022-07-29T02:04:48;3.20;;;1.10;;
3819;SDS011;1925;51.356;9.530;2022-07-29T02:07:20;2.10;;;1.00;;
3819;SDS011;1925;51.356;9.530;2022-07-29T02:09:47;3.87;;;1.30;;
3819;SDS011;1925;51.356;9.530;2022-07-29T02:12:13;2.60;;;1.73;;
3819;SDS011;1925;51.356;9.530;2022-07-29T02:14:42;9.83;;;1.77;;
3819;SDS011;1925;51.356;9.530;2022-07-29T02:17:10;2.30;;;0.97;;
3819;SDS011;1925;51.356;9.530;2022-07-29T02:19:38;1.70;;;0.97;;
3819;SDS011;1925;51.356;9.530;2022-07-29T02:22:04;5.13;;;1.77;;
3819;SDS011;1925;51.356;9.530;2022-07-29T02:24:31;6.17;;;1.67;;
3819;SDS011;1925;51.356;9.530;2022-07-29T02:26:58;4.27;;;1.23;;
3819;SDS011;1925;51.356;9.530;2022-07-29T02:29:26;3.00;;;1.27;;
3819;SDS011;1925;51.356;9.530;2022-07-29T02:31:53;4.03;;;1.60;;
3819;SDS011;1925;51.356;9.530;2022-07-29T02:34:20;6.00;;;1.63;;
3819;SDS011;1925;51.356;9.530;2022-07-29T02:36:47;2.90;;;1.27;;
3819;SDS011;1925;51.356;9.530;2022-07-29T02:39:13;3.93;;;1.20;;
3819;SDS011;1925;51.356;9.530;2022-07-29T02:41:47;2.40;;;2.00;;
3819;SDS011;1925;51.356;9.530;2022-07-29T02:44:15;3.47;;;1.27;;
3819;SDS011;1925;51.356;9.530;2022-07-29T02:46:45;1.80;;;1.30;;
3819;SDS011;1925;51.356;9.530;2022-07-29T02:49:14;5.27;;;1.40;;
3819;SDS011;1925;51.356;9.530;2022-07-29T02:51:43;2.13;;;1.07;;
3819;SDS011;1925;51.356;9.530;2022-07-29T02:54:09;6.23;;;1.70;;
3819;SDS011;1925;51.356;9.530;2022-07-29T02:56:36;8.47;;;1.50;;
3819;SDS011;1925;51.356;9.530;2022-07-29T02:59:05;2.00;;;1.43;;
3819;SDS011;1925;51.356;9.530;2022-07-29T03:01:32;3.97;;;1.50;;
3819;SDS011;1925;51.356;9.530;2022-07-29T03:04:00;5.73;;;1.70;;
3819;SDS011;1925;51.356;9.530;2022-07-29T03:06:27;3.83;;;1.23;;
3819;SDS011;1925;51.356;9.530;2022-07-29T03:08:54;5.20;;;1.30;;
3819;SDS011;1925;51.356;9.530;2022-07-29T03:11:20;3.20;;;0.93;;
3819;SDS011;1925;51.356;9.530;2022-07-29T03:13:47;3.43;;;1.17;;
3819;SDS011;1925;51.356;9.530;2022-07-29T03:16:14;2.63;;;1.60;;
3819;SDS011;1925;51.356;9.530;2022-07-29T03:18:40;3.20;;;1.17;;
3819;SDS011;1925;51.356;9.530;2022-07-29T03:21:06;6.10;;;1.53;;
3819;SDS011;1925;51.356;9.530;2022-07-29T03:23:33;5.50;;;1.30;;
3819;SDS011;1925;51.356;9.530;2022-07-29T03:25:59;2.60;;;1.20;;
3819;SDS011;1925;51.356;9.530;2022-07-29T03:28:25;5.50;;;2.47;;
3819;SDS011;1925;51.356;9.530;2022-07-29T03:30:52;5.13;;;1.27;;
3819;SDS011;1925;51.356;9.530;2022-07-29T03:33:18;2.10;;;1.23;;
3819;SDS011;1925;51.356;9.530;2022-07-29T03:35:44;4.40;;;1.60;;
3819;SDS011;1925;51.356;9.530;2022-07-29T03:38:10;1.63;;;1.17;;
3819;SDS011;1925;51.356;9.530;2022-07-29T03:40:53;3.33;;;1.10;;
3819;SDS011;1925;51.356;9.530;2022-07-29T03:43:20;3.90;;;1.27;;
3819;SDS011;1925;51.356;9.530;2022-07-29T03:45:47;6.03;;;1.83;;
3819;SDS011;1925;51.356;9.530;2022-07-29T03:48:16;5.57;;;1.50;;
3819;SDS011;1925;51.356;9.530;2022-07-29T03:50:43;2.10;;;1.20;;
3819;SDS011;1925;51.356;9.530;2022-07-29T03:53:10;4.67;;;2.10;;
3819;SDS011;1925;51.356;9.530;2022-07-29T03:55:37;2.00;;;1.30;;
3819;SDS011;1925;51.356;9.530;2022-07-29T03:58:05;2.80;;;1.70;;
3819;SDS011;1925;51.356;9.530;2022-07-29T04:00:33;5.07;;;1.00;;
3819;SDS011;1925;51.356;9.530;2022-07-29T04:02:59;5.70;;;1.37;;
3819;SDS011;1925;51.356;9.530;2022-07-29T04:05:25;2.87;;;1.17;;
3819;SDS011;1925;51.356;9.530;2022-07-29T04:07:51;2.60;;;0.90;;
3819;SDS011;1925;51.356;9.530;2022-07-29T04:10:17;2.50;;;1.13;;
3819;SDS011;1925;51.356;9.530;2022-07-29T04:12:48;5.93;;;1.20;;
3819;SDS011;1925;51.356;9.530;2022-07-29T04:15:14;2.20;;;1.83;;
3819;SDS011;1925;51.356;9.530;2022-07-29T04:17:40;4.00;;;1.50;;
3819;SDS011;1925;51.356;9.530;2022-07-29T04:20:06;8.63;;;1.53;;
3819;SDS011;1925;51.356;9.530;2022-07-29T04:22:32;2.80;;;1.43;;
3819;SDS011;1925;51.356;9.530;2022-07-29T04:24:58;2.30;;;1.07;;
3819;SDS011;1925;51.356;9.530;2022-07-29T04:27:24;2.30;;;1.40;;
3819;SDS011;1925;51.356;9.530;2022-07-29T04:29:50;3.80;;;1.40;;
3819;SDS011;1925;51.356;9.530;2022-07-29T04:32:16;1.23;;;1.13;;
3819;SDS011;1925;51.356;9.530;2022-07-29T04:34:42;4.13;;;1.43;;
3819;SDS011;1925;51.356;9.530;2022-07-29T04:37:10;3.00;;;1.63;;
3819;SDS011;1925;51.356;9.530;2022-07-29T04:39:36;6.40;;;1.20;;
3819;SDS011;1925;51.356;9.530;2022-07-29T04:42:02;4.60;;;1.50;;
3819;SDS011;1925;51.356;9.530;2022-07-29T04:44:28;3.80;;;1.50;;
3819;SDS011;1925;51.356;9.530;2022-07-29T04:46:54;4.50;;;1.17;;
3819;SDS011;1925;51.356;9.530;2022-07-29T04:49:20;1.80;;;1.37;;
3819;SDS011;1925;51.356;9.530;2022-07-29T04:51:46;2.50;;;1.13;;
3819;SDS011;1925;51.356;9.530;2022-07-29T04:54:12;11.97;;;3.30;;
3819;SDS011;1925;51.356;9.530;2022-07-29T04:56:38;4.07;;;1.33;;
3819;SDS011;1925;51.356;9.530;2022-07-29T04:59:04;4.70;;;1.30;;
3819;SDS011;1925;51.356;9.530;2022-07-29T05:01:30;1.70;;;1.37;;
3819;SDS011;1925;51.356;9.530;2022-07-29T05:03:56;4.63;;;1.40;;
3819;SDS011;1925;51.356;9.530;2022-07-29T05:06:22;7.17;;;1.90;;
3819;SDS011;1925;51.356;9.530;2022-07-29T05:08:48;6.60;;;1.73;;
3819;SDS011;1925;51.356;9.530;2022-07-29T05:11:14;4.07;;;1.40;;
3819;SDS011;1925;51.356;9.530;2022-07-29T05:13:40;1.50;;;1.00;;
3819;SDS011;1925;51.356;9.530;2022-07-29T05:16:07;8.83;;;1.50;;
3819;SDS011;1925;51.356;9.530;2022-07-29T05:18:33;2.50;;;1.50;;
3819;SDS011;1925;51.356;9.530;2022-07-29T05:20:59;3.73;;;1.50;;
3819;SDS011;1925;51.356;9.530;2022-07-29T05:23:25;5.50;;;1.83;;
3819;SDS011;1925;51.356;9.530;2022-07-29T05:25:51;1.77;;;1.23;;
3819;SDS011;1925;51.356;9.530;2022-07-29T05:28:17;2.90;;;1.30;;
3819;SDS011;1925;51.356;9.530;2022-07-29T05:30:43;2.13;;;1.27;;
3819;SDS011;1925;51.356;9.530;2022-07-29T05:33:09;2.67;;;1.40;;
3819;SDS011;1925;51.356;9.530;2022-07-29T05:35:35;4.53;;;1.40;;
3819;SDS011;1925;51.356;9.530;2022-07-29T05:38:02;4.53;;;1.40;;
3819;SDS011;1925;51.356;9.530;2022-07-29T05:40:28;2.87;;;1.30;;
3819;SDS011;1925;51.356;9.530;2022-07-29T05:42:54;2.17;;;1.30;;
3819;SDS011;1925;51.356;9.530;2022-07-29T05:45:20;2.90;;;1.30;;
3819;SDS011;1925;51.356;9.530;2022-07-29T05:47:46;3.60;;;1.30;;
3819;SDS011;1925;51.356;9.530;2022-07-29T05:50:12;4.30;;;1.20;;
3819;SDS011;1925;51.356;9.530;2022-07-29T05:52:38;4.60;;;1.40;;
3819;SDS011;1925;51.356;9.530;2022-07-29T05:55:05;7.33;;;1.47;;
3819;SDS011;1925;51.356;9.530;2022-07-29T05:57:31;5.70;;;1.40;;
3819;SDS011;1925;51.356;9.530;2022-07-29T05:59:57;4.63;;;1.00;;
3819;SDS011;1925;51.356;9.530;2022-07-29T06:02:23;2.40;;;1.40;;
3819;SDS011;1925;51.356;9.530;2022-07-29T06:04:49;6.13;;;1.50;;
3819;SDS011;1925;51.356;9.530;2022-07-29T06:07:15;5.87;;;1.50;;
3819;SDS011;1925;51.356;9.530;2022-07-29T06:09:41;2.90;;;1.37;;
3819;SDS011;1925;51.356;9.530;2022-07-29T06:12:07;4.13;;;1.27;;
3819;SDS011;1925;51.356;9.530;2022-07-29T06:14:34;5.20;;;1.60;;
3819;SDS011;1925;51.356;9.530;2022-07-29T06:17:00;5.10;;;1.20;;
3819;SDS011;1925;51.356;9.530;2022-07-29T06:19:27;2.00;;;1.30;;
3819;SDS011;1925;51.356;9.530;2022-07-29T06:21:53;4.93;;;1.60;;
3819;SDS011;1925;51.356;9.530;2022-07-29T06:24:19;6.03;;;1.50;;
3819;SDS011;1925;51.356;9.530;2022-07-29T06:26:45;6.20;;;1.50;;
3819;SDS011;1925;51.356;9.530;2022-07-29T06:29:11;3.30;;;1.33;;
3819;SDS011;1925;51.356;9.530;2022-07-29T06:31:37;2.60;;;1.10;;
3819;SDS011;1925;51.356;9.530;2022-07-29T06:34:03;3.90;;;1.27;;
3819;SDS011;1925;51.356;9.530;2022-07-29T06:36:29;3.53;;;1.23;;
3819;SDS011;1925;51.356;9.530;2022-07-29T06:38:55;8.37;;;1.50;;
3819;SDS011;1925;51.356;9.530;2022-07-29T06:41:21;1.10;;;1.00;;
3819;SDS011;1925;51.356;9.530;2022-07-29T06:43:48;2.87;;;1.50;;
3819;SDS011;1925;51.356;9.530;2022-07-29T06:46:16;2.80;;;1.40;;
3819;SDS011;1925;51.356;9.530;2022-07-29T06:48:43;5.40;;;1.60;;
3819;SDS011;1925;51.356;9.530;2022-07-29T06:51:09;1.70;;;1.37;;
3819;SDS011;1925;51.356;9.530;2022-07-29T06:53:36;2.53;;;1.70;;
3819;SDS011;1925;51.356;9.530;2022-07-29T06:56:03;3.20;;;1.37;;
3819;SDS011;1925;51.356;9.530;2022-07-29T06:58:29;4.83;;;1.53;;
3819;SDS011;1925;51.356;9.530;2022-07-29T07:00:56;2.93;;;1.33;;
3819;SDS011;1925;51.356;9.530;2022-07-29T07:03:23;4.20;;;1.17;;
3819;SDS011;1925;51.356;9.530;2022-07-29T07:05:49;2.03;;;1.10;;
3819;SDS011;1925;51.356;9.530;2022-07-29T07:08:15;3.00;;;1.60;;
3819;SDS011;1925;51.356;9.530;2022-07-29T07:10:41;1.93;;;1.00;;
3819;SDS011;1925;51.356;9.530;2022-07-29T07:13:07;1.37;;;1.00;;
3819;SDS011;1925;51.356;9.530;2022-07-29T07:15:33;6.50;;;1.60;;
3819;SDS011;1925;51.356;9.530;2022-07-29T07:18:01;4.47;;;1.13;;
3819;SDS011;1925;51.356;9.530;2022-07-29T07:20:27;1.73;;;1.40;;
3819;SDS011;1925;51.356;9.530;2022-07-29T07:22:53;5.30;;;1.43;;
3819;SDS011;1925;51.356;9.530;2022-07-29T07:25:19;5.73;;;1.50;;
3819;SDS011;1925;51.356;9.530;2022-07-29T07:27:45;2.63;;;1.50;;
3819;SDS011;1925;51.356;9.530;2022-07-29T07:30:11;3.73;;;1.03;;
3819;SDS011;1925;51.356;9.530;2022-07-29T07:32:37;4.10;;;1.43;;
3819;SDS011;1925;51.356;9.530;2022-07-29T07:35:04;8.40;;;1.70;;
3819;SDS011;1925;51.356;9.530;2022-07-29T07:37:30;1.93;;;1.30;;
3819;SDS011;1925;51.356;9.530;2022-07-29T07:39:56;2.33;;;1.20;;
3819;SDS011;1925;51.356;9.530;2022-07-29T07:42:23;3.33;;;1.50;;
3819;SDS011;1925;51.356;9.530;2022-07-29T07:44:49;5.23;;;1.47;;
3819;SDS011;1925;51.356;9.530;2022-07-29T07:47:15;16.73;;;2.20;;
3819;SDS011;1925;51.356;9.530;2022-07-29T07:49:51;3.87;;;1.37;;
3819;SDS011;1925;51.356;9.530;2022-07-29T07:52:18;7.40;;;1.80;;
3819;SDS011;1925;51.356;9.530;2022-07-29T07:54:45;4.77;;;1.97;;
3819;SDS011;1925;51.356;9.530;2022-07-29T07:57:11;2.10;;;1.30;;
3819;SDS011;1925;51.356;9.530;2022-07-29T07:59:37;3.87;;;1.53;;
3819;SDS011;1925;51.356;9.530;2022-07-29T08:02:03;2.90;;;1.20;;
3819;SDS011;1925;51.356;9.530;2022-07-29T08:04:29;4.50;;;1.40;;
3819;SDS011;1925;51.356;9.530;2022-07-29T08:06:56;7.50;;;1.80;;
3819;SDS011;1925;51.356;9.530;2022-07-29T08:09:22;5.30;;;1.80;;
3819;SDS011;1925;51.356;9.530;2022-07-29T08:11:48;3.33;;;1.77;;
3819;SDS011;1925;51.356;9.530;2022-07-29T08:14:14;2.53;;;1.50;;
3819;SDS011;1925;51.356;9.530;2022-07-29T08:16:41;2.47;;;1.40;;
3819;SDS011;1925;51.356;9.530;2022-07-29T08:19:07;4.67;;;1.90;;
3819;SDS011;1925;51.356;9.530;2022-07-29T08:21:34;2.70;;;1.70;;
3819;SDS011;1925;51.356;9.530;2022-07-29T08:24:00;6.93;;;2.10;;
3819;SDS011;1925;51.356;9.530;2022-07-29T08:26:45;4.97;;;2.03;;
3819;SDS011;1925;51.356;9.530;2022-07-29T08:29:11;3.07;;;1.80;;
3819;SDS011;1925;51.356;9.530;2022-07-29T08:31:37;3.63;;;1.70;;
3819;SDS011;1925;51.356;9.530;2022-07-29T08:34:04;5.10;;;2.50;;
3819;SDS011;1925;51.356;9.530;2022-07-29T08:36:30;7.00;;;2.00;;
3819;SDS011;1925;51.356;9.530;2022-07-29T08:38:56;4.03;;;1.87;;
3819;SDS011;1925;51.356;9.530;2022-07-29T08:41:22;8.10;;;2.00;;
3819;SDS011;1925;51.356;9.530;2022-07-29T08:43:48;7.10;;;1.93;;
3819;SDS011;1925;51.356;9.530;2022-07-29T08:46:15;4.43;;;1.77;;
3819;SDS011;1925;51.356;9.530;2022-07-29T08:48:42;5.27;;;1.50;;
3819;SDS011;1925;51.356;9.530;2022-07-29T08:51:08;4.17;;;2.00;;
3819;SDS011;1925;51.356;9.530;2022-07-29T08:53:39;3.30;;;1.80;;
3819;SDS011;1925;51.356;9.530;2022-07-29T08:56:06;6.97;;;1.87;;
3819;SDS011;1925;51.356;9.530;2022-07-29T08:58:32;6.67;;;2.47;;
3819;SDS011;1925;51.356;9.530;2022-07-29T09:00:59;6.77;;;1.57;;
3819;SDS011;1925;51.356;9.530;2022-07-29T09:03:31;4.33;;;2.50;;
3819;SDS011;1925;51.356;9.530;2022-07-29T09:05:58;4.63;;;2.43;;
3819;SDS011;1925;51.356;9.530;2022-07-29T09:08:24;2.77;;;1.50;;
3819;SDS011;1925;51.356;9.530;2022-07-29T09:10:50;3.00;;;2.00;;
3819;SDS011;1925;51.356;9.530;2022-07-29T09:13:16;4.20;;;2.10;;
3819;SDS011;1925;51.356;9.530;2022-07-29T09:15:43;3.10;;;1.50;;
3819;SDS011;1925;51.356;9.530;2022-07-29T09:18:09;11.63;;;1.97;;
3819;SDS011;1925;51.356;9.530;2022-07-29T09:20:35;2.80;;;1.20;;
3819;SDS011;1925;51.356;9.530;2022-07-29T09:23:19;5.73;;;1.77;;
3819;SDS011;1925;51.356;9.530;2022-07-29T09:25:45;2.80;;;1.43;;
3819;SDS011;1925;51.356;9.530;2022-07-29T09:28:12;2.27;;;1.57;;
3819;SDS011;1925;51.356;9.530;2022-07-29T09:33:17;2.97;;;1.70;;
3819;SDS011;1925;51.356;9.530;2022-07-29T09:35:43;1.93;;;1.60;;
3819;SDS011;1925;51.356;9.530;2022-07-29T09:38:09;5.70;;;1.90;;
3819;SDS011;1925;51.356;9.530;2022-07-29T09:40:36;3.07;;;1.90;;
3819;SDS011;1925;51.356;9.530;2022-07-29T09:43:09;3.90;;;1.50;;
3819;SDS011;1925;51.356;9.530;2022-07-29T09:45:35;2.60;;;2.20;;
3819;SDS011;1925;51.356;9.530;2022-07-29T09:48:22;3.40;;;1.40;;
3819;SDS011;1925;51.356;9.530;2022-07-29T09:50:48;5.80;;;1.80;;
3819;SDS011;1925;51.356;9.530;2022-07-29T09:53:56;3.00;;;1.47;;
3819;SDS011;1925;51.356;9.530;2022-07-29T09:56:05;9.13;;;1.70;;
3819;SDS011;1925;51.356;9.530;2022-07-29T09:58:31;1.67;;;1.57;;
3819;SDS011;1925;51.356;9.530;2022-07-29T10:01:00;3.70;;;1.80;;
3819;SDS011;1925;51.356;9.530;2022-07-29T10:03:27;3.00;;;1.53;;
3819;SDS011;1925;51.356;9.530;2022-07-29T10:06:09;4.10;;;1.70;;
3819;SDS011;1925;51.356;9.530;2022-07-29T10:08:36;11.53;;;2.57;;
3819;SDS011;1925;51.356;9.530;2022-07-29T10:11:09;5.03;;;1.90;;
3819;SDS011;1925;51.356;9.530;2022-07-29T10:13:35;4.67;;;2.03;;
3819;SDS011;1925;51.356;9.530;2022-07-29T10:16:01;3.30;;;1.63;;
3819;SDS011;1925;51.356;9.530;2022-07-29T10:18:28;4.67;;;1.60;;
3819;SDS011;1925;51.356;9.530;2022-07-29T10:20:54;4.57;;;2.00;;
3819;SDS011;1925;51.356;9.530;2022-07-29T10:23:20;7.90;;;1.50;;
3819;SDS011;1925;51.356;9.530;2022-07-29T10:25:46;4.10;;;1.73;;
3819;SDS011;1925;51.356;9.530;2022-07-29T10:28:12;3.17;;;1.90;;
3819;SDS011;1925;51.356;9.530;2022-07-29T10:30:38;2.63;;;1.67;;
3819;SDS011;1925;51.356;9.530;2022-07-29T10:38:34;3.47;;;1.90;;
3819;SDS011;1925;51.356;9.530;2022-07-29T10:43:47;3.67;;;1.93;;
3819;SDS011;1925;51.356;9.530;2022-07-29T10:46:14;2.27;;;1.80;;
3819;SDS011;1925;51.356;9.530;2022-07-29T10:51:25;4.53;;;1.70;;
3819;SDS011;1925;51.356;9.530;2022-07-29T10:53:51;3.57;;;1.63;;
3819;SDS011;1925;51.356;9.530;2022-07-29T10:56:25;3.33;;;1.80;;
3819;SDS011;1925;51.356;9.530;2022-07-29T11:01:36;3.70;;;1.80;;
3819;SDS011;1925;51.356;9.530;2022-07-29T11:04:02;2.73;;;1.70;;
3819;SDS011;1925;51.356;9.530;2022-07-29T11:07:00;3.20;;;1.80;;
3819;SDS011;1925;51.356;9.530;2022-07-29T11:09:18;2.77;;;1.57;;
3819;SDS011;1925;51.356;9.530;2022-07-29T11:11:44;6.87;;;2.10;;
3819;SDS011;1925;51.356;9.530;2022-07-29T11:14:10;4.60;;;1.53;;
3819;SDS011;1925;51.356;9.530;2022-07-29T11:19:21;4.50;;;2.60;;
3819;SDS011;1925;51.356;9.530;2022-07-29T11:21:47;4.90;;;1.73;;
3819;SDS011;1925;51.356;9.530;2022-07-29T11:24:22;4.53;;;2.27;;
3819;SDS011;1925;51.356;9.530;2022-07-29T11:29:38;3.80;;;1.97;;
3819;SDS011;1925;51.356;9.530;2022-07-29T11:32:12;8.40;;;3.07;;
3819;SDS011;1925;51.356;9.530;2022-07-29T11:34:44;4.43;;;2.20;;
3819;SDS011;1925;51.356;9.530;2022-07-29T11:39:41;3.10;;;1.97;;
3819;SDS011;1925;51.356;9.530;2022-07-29T11:45:05;2.47;;;2.20;;
3819;SDS011;1925;51.356;9.530;2022-07-29T11:47:53;3.40;;;2.10;;
3819;SDS011;1925;51.356;9.530;2022-07-29T11:53:16;3.93;;;2.10;;
3819;SDS011;1925;51.356;9.530;2022-07-29T11:55:42;3.53;;;1.70;;
3819;SDS011;1925;51.356;9.530;2022-07-29T11:58:08;3.77;;;2.47;;
3819;SDS011;1925;51.356;9.530;2022-07-29T12:00:37;2.60;;;1.63;;
3819;SDS011;1925;51.356;9.530;2022-07-29T12:03:07;3.60;;;2.10;;
3819;SDS011;1925;51.356;9.530;2022-07-29T12:05:34;4.83;;;2.13;;
3819;SDS011;1925;51.356;9.530;2022-07-29T12:10:32;3.47;;;1.80;;
3819;SDS011;1925;51.356;9.530;2022-07-29T12:12:58;4.10;;;2.50;;
3819;SDS011;1925;51.356;9.530;2022-07-29T12:15:24;3.40;;;2.40;;
3819;SDS011;1925;51.356;9.530;2022-07-29T12:17:51;2.53;;;1.90;;
3819;SDS011;1925;51.356;9.530;2022-07-29T12:20:26;4.90;;;2.50;;
3819;SDS011;1925;51.356;9.530;2022-07-29T12:22:53;3.60;;;2.00;;
3819;SDS011;1925;51.356;9.530;2022-07-29T12:25:20;3.50;;;2.73;;
3819;SDS011;1925;51.356;9.530;2022-07-29T12:27:46;4.97;;;2.80;;
3819;SDS011;1925;51.356;9.530;2022-07-29T12:30:14;4.43;;;2.30;;
3819;SDS011;1925;51.356;9.530;2022-07-29T12:32:45;3.50;;;2.30;;
3819;SDS011;1925;51.356;9.530;2022-07-29T12:37:38;2.30;;;1.90;;
3819;SDS011;1925;51.356;9.530;2022-07-29T12:40:06;3.43;;;2.43;;
3819;SDS011;1925;51.356;9.530;2022-07-29T12:42:32;3.03;;;2.13;;
3819;SDS011;1925;51.356;9.530;2022-07-29T12:44:58;3.63;;;2.37;;
3819;SDS011;1925;51.356;9.530;2022-07-29T12:47:24;3.00;;;2.60;;
3819;SDS011;1925;51.356;9.530;2022-07-29T12:49:50;11.23;;;2.57;;
3819;SDS011;1925;51.356;9.530;2022-07-29T12:52:27;5.60;;;2.57;;
3819;SDS011;1925;51.356;9.530;2022-07-29T12:54:53;5.00;;;2.27;;
3819;SDS011;1925;51.356;9.530;2022-07-29T12:57:19;5.40;;;2.33;;
3819;SDS011;1925;51.356;9.530;2022-07-29T12:59:58;3.10;;;2.80;;
3819;SDS011;1925;51.356;9.530;2022-07-29T13:02:24;5.00;;;2.87;;
3819;SDS011;1925;51.356;9.530;2022-07-29T13:04:57;2.80;;;2.00;;
3819;SDS011;1925;51.356;9.530;2022-07-29T13:07:24;5.53;;;2.50;;
3819;SDS011;1925;51.356;9.530;2022-07-29T13:09:50;4.83;;;2.10;;
3819;SDS011;1925;51.356;9.530;2022-07-29T13:12:16;8.80;;;3.13;;
3819;SDS011;1925;51.356;9.530;2022-07-29T13:17:10;3.47;;;3.10;;
3819;SDS011;1925;51.356;9.530;2022-07-29T13:19:37;9.00;;;2.80;;
3819;SDS011;1925;51.356;9.530;2022-07-29T13:22:05;3.97;;;2.23;;
3819;SDS011;1925;51.356;9.530;2022-07-29T13:24:31;2.60;;;2.40;;
3819;SDS011;1925;51.356;9.530;2022-07-29T13:26:57;3.10;;;2.10;;
3819;SDS011;1925;51.356;9.530;2022-07-29T13:29:23;3.80;;;2.27;;
3819;SDS011;1925;51.356;9.530;2022-07-29T13:31:49;3.40;;;2.53;;
3819;SDS011;1925;51.356;9.530;2022-07-29T13:34:15;2.77;;;2.57;;
3819;SDS011;1925;51.356;9.530;2022-07-29T13:36:41;3.40;;;2.57;;
3819;SDS011;1925;51.356;9.530;2022-07-29T13:39:07;3.53;;;2.80;;
3819;SDS011;1925;51.356;9.530;2022-07-29T13:41:33;2.37;;;2.17;;
3819;SDS011;1925;51.356;9.530;2022-07-29T13:43:59;2.87;;;2.23;;
3819;SDS011;1925;51.356;9.530;2022-07-29T13:46:25;3.20;;;2.47;;
3819;SDS011;1925;51.356;9.530;2022-07-29T13:48:51;5.40;;;2.90;;
3819;SDS011;1925;51.356;9.530;2022-07-29T13:51:17;2.63;;;2.30;;
3819;SDS011;1925;51.356;9.530;2022-07-29T13:53:43;6.07;;;2.83;;
3819;SDS011;1925;51.356;9.530;2022-07-29T13:56:09;5.03;;;2.70;;
3819;SDS011;1925;51.356;9.530;2022-07-29T13:58:35;2.27;;;2.07;;
3819;SDS011;1925;51.356;9.530;2022-07-29T14:01:01;3.73;;;1.93;;
3819;SDS011;1925;51.356;9.530;2022-07-29T14:03:27;3.17;;;1.90;;
3819;SDS011;1925;51.356;9.530;2022-07-29T14:05:53;4.20;;;2.67;;
3819;SDS011;1925;51.356;9.530;2022-07-29T14:08:19;2.50;;;2.30;;
3819;SDS011;1925;51.356;9.530;2022-07-29T14:10:45;5.10;;;2.63;;
3819;SDS011;1925;51.356;9.530;2022-07-29T14:13:11;3.00;;;2.47;;
3819;SDS011;1925;51.356;9.530;2022-07-29T14:15:37;2.80;;;2.07;;
3819;SDS011;1925;51.356;9.530;2022-07-29T14:18:03;5.90;;;2.40;;
3819;SDS011;1925;51.356;9.530;2022-07-29T14:20:29;3.27;;;2.53;;
3819;SDS011;1925;51.356;9.530;2022-07-29T14:22:55;3.20;;;2.30;;
3819;SDS011;1925;51.356;9.530;2022-07-29T14:25:21;3.43;;;2.50;;
3819;SDS011;1925;51.356;9.530;2022-07-29T14:27:47;4.30;;;2.30;;
3819;SDS011;1925;51.356;9.530;2022-07-29T14:30:13;3.43;;;3.10;;
3819;SDS011;1925;51.356;9.530;2022-07-29T14:32:39;4.17;;;2.60;;
3819;SDS011;1925;51.356;9.530;2022-07-29T14:35:06;2.97;;;2.43;;
3819;SDS011;1925;51.356;9.530;2022-07-29T14:37:32;4.13;;;2.50;;
3819;SDS011;1925;51.356;9.530;2022-07-29T14:40:00;4.10;;;2.60;;
3819;SDS011;1925;51.356;9.530;2022-07-29T14:42:28;5.10;;;3.03;;
3819;SDS011;1925;51.356;9.530;2022-07-29T14:44:54;3.10;;;2.40;;
3819;SDS011;1925;51.356;9.530;2022-07-29T14:47:20;4.13;;;2.30;;
3819;SDS011;1925;51.356;9.530;2022-07-29T14:49:46;4.63;;;2.73;;
3819;SDS011;1925;51.356;9.530;2022-07-29T14:52:12;6.00;;;3.20;;
3819;SDS011;1925;51.356;9.530;2022-07-29T14:54:38;3.10;;;2.80;;
3819;SDS011;1925;51.356;9.530;2022-07-29T14:57:04;3.60;;;2.70;;
3819;SDS011;1925;51.356;9.530;2022-07-29T14:59:30;3.20;;;2.70;;
3819;SDS011;1925;51.356;9.530;2022-07-29T15:01:56;4.77;;;2.57;;
3819;SDS011;1925;51.356;9.530;2022-07-29T15:04:22;7.33;;;2.20;;
3819;SDS011;1925;51.356;9.530;2022-07-29T15:06:48;3.80;;;2.50;;
3819;SDS011;1925;51.356;9.530;2022-07-29T15:09:15;3.30;;;2.90;;
3819;SDS011;1925;51.356;9.530;2022-07-29T15:11:41;2.73;;;2.53;;
3819;SDS011;1925;51.356;9.530;2022-07-29T15:14:07;3.47;;;3.17;;
3819;SDS011;1925;51.356;9.530;2022-07-29T15:16:35;5.50;;;2.90;;
3819;SDS011;1925;51.356;9.530;2022-07-29T15:19:01;6.60;;;2.47;;
3819;SDS011;1925;51.356;9.530;2022-07-29T15:21:27;4.33;;;2.47;;
3819;SDS011;1925;51.356;9.530;2022-07-29T15:23:53;5.10;;;3.00;;
3819;SDS011;1925;51.356;9.530;2022-07-29T15:26:19;4.00;;;2.40;;
3819;SDS011;1925;51.356;9.530;2022-07-29T15:28:45;6.33;;;2.80;;
3819;SDS011;1925;51.356;9.530;2022-07-29T15:31:11;6.23;;;2.80;;
3819;SDS011;1925;51.356;9.530;2022-07-29T15:33:39;6.80;;;3.33;;
3819;SDS011;1925;51.356;9.530;2022-07-29T15:36:05;6.73;;;3.10;;
3819;SDS011;1925;51.356;9.530;2022-07-29T15:38:31;4.50;;;2.67;;
3819;SDS011;1925;51.356;9.530;2022-07-29T15:40:57;7.03;;;3.40;;
3819;SDS011;1925;51.356;9.530;2022-07-29T15:43:23;3.00;;;2.80;;
3819;SDS011;1925;51.356;9.530;2022-07-29T15:45:49;3.37;;;2.60;;
3819;SDS011;1925;51.356;9.530;2022-07-29T15:48:37;7.17;;;2.83;;
3819;SDS011;1925;51.356;9.530;2022-07-29T15:51:03;6.27;;;3.07;;
3819;SDS011;1925;51.356;9.530;2022-07-29T15:53:29;6.90;;;3.03;;
3819;SDS011;1925;51.356;9.530;2022-07-29T15:55:55;4.43;;;3.00;;
3819;SDS011;1925;51.356;9.530;2022-07-29T15:58:21;3.17;;;2.53;;
3819;SDS011;1925;51.356;9.530;2022-07-29T16:00:47;3.97;;;2.70;;
3819;SDS011;1925;51.356;9.530;2022-07-29T16:03:13;4.90;;;2.53;;